KPNC

Ponca City Regional Airport

Ponca City, Oklahoma, USA
METAR KPNC 220453Z AUTO 02003KT 10SM CLR 21/13 A2988 RMK AO2 SLP107 T02060133
Observed Flight Rules
Jun-22 @ 04:53 UTC (51 minutes ago) Visual Flight Rules
Wind Visibility Clouds
20° at 3 knots 10 miles
  • Clear skies
Temperatures Readings
Current 21°C / 70°F
Dewpoint 13°C / 55°F
Humidity 60%
Altimeter 29.88" Hg
Pressure 1010.7 hPa
Elevation 308
METAR KPNC 220453Z AUTO 02003KT 10SM CLR 21/13 A2988 RMK AO2 SLP107 T02060133
Observed Flight Rules
Jun-22 @ 04:53 UTC
(51 minutes ago)
VFR
Wind Visibility
20° at 3 knots 10 miles
Clouds
  • Clear skies
Temperature Dewpoint
21°C / 70°F 13°C / 55°F
Humidity Altimeter Pressure
60% 29.88" Hg 1010.7 hPa